sensor_id;sensor_type;location;lat;lon;timestamp;P1;durP1;ratioP1;P2;durP2;ratioP2
23288;SDS011;11813;50.834;4.280;2023-03-30T00:01:20;5.50;;;2.40;;
23288;SDS011;11813;50.834;4.280;2023-03-30T00:03:46;6.30;;;2.37;;
23288;SDS011;11813;50.834;4.280;2023-03-30T00:06:13;8.67;;;2.97;;
23288;SDS011;11813;50.834;4.280;2023-03-30T00:08:45;12.17;;;2.70;;
23288;SDS011;11813;50.834;4.280;2023-03-30T00:11:12;8.53;;;2.33;;
23288;SDS011;11813;50.834;4.280;2023-03-30T00:13:39;9.87;;;2.30;;
23288;SDS011;11813;50.834;4.280;2023-03-30T00:16:07;5.47;;;2.50;;
23288;SDS011;11813;50.834;4.280;2023-03-30T00:18:34;6.00;;;2.27;;
23288;SDS011;11813;50.834;4.280;2023-03-30T00:21:00;7.87;;;2.50;;
23288;SDS011;11813;50.834;4.280;2023-03-30T00:23:26;4.87;;;2.20;;
23288;SDS011;11813;50.834;4.280;2023-03-30T00:25:52;8.03;;;2.30;;
23288;SDS011;11813;50.834;4.280;2023-03-30T00:28:17;4.03;;;2.20;;
23288;SDS011;11813;50.834;4.280;2023-03-30T00:30:43;6.97;;;2.00;;
23288;SDS011;11813;50.834;4.280;2023-03-30T00:33:08;5.93;;;2.30;;
23288;SDS011;11813;50.834;4.280;2023-03-30T00:35:34;5.00;;;2.47;;
23288;SDS011;11813;50.834;4.280;2023-03-30T00:38:00;6.80;;;1.97;;
23288;SDS011;11813;50.834;4.280;2023-03-30T00:40:27;3.60;;;2.07;;
23288;SDS011;11813;50.834;4.280;2023-03-30T00:43:01;5.70;;;2.30;;
23288;SDS011;11813;50.834;4.280;2023-03-30T00:45:32;3.03;;;2.00;;
23288;SDS011;11813;50.834;4.280;2023-03-30T00:50:43;5.97;;;1.80;;
23288;SDS011;11813;50.834;4.280;2023-03-30T00:53:27;4.90;;;1.73;;
23288;SDS011;11813;50.834;4.280;2023-03-30T00:55:57;6.00;;;1.80;;
23288;SDS011;11813;50.834;4.280;2023-03-30T00:58:23;6.17;;;1.70;;
23288;SDS011;11813;50.834;4.280;2023-03-30T01:00:50;5.37;;;2.03;;
23288;SDS011;11813;50.834;4.280;2023-03-30T01:05:47;4.33;;;1.70;;
23288;SDS011;11813;50.834;4.280;2023-03-30T01:08:15;4.97;;;1.80;;
23288;SDS011;11813;50.834;4.280;2023-03-30T01:10:42;5.23;;;2.00;;
23288;SDS011;11813;50.834;4.280;2023-03-30T01:13:09;3.20;;;1.50;;
23288;SDS011;11813;50.834;4.280;2023-03-30T01:15:38;7.53;;;1.80;;
23288;SDS011;11813;50.834;4.280;2023-03-30T01:18:12;3.60;;;1.97;;
23288;SDS011;11813;50.834;4.280;2023-03-30T01:21:06;3.37;;;1.63;;
23288;SDS011;11813;50.834;4.280;2023-03-30T01:23:43;6.63;;;1.90;;
23288;SDS011;11813;50.834;4.280;2023-03-30T01:26:43;3.03;;;1.80;;
23288;SDS011;11813;50.834;4.280;2023-03-30T01:29:26;5.37;;;1.80;;
23288;SDS011;11813;50.834;4.280;2023-03-30T01:32:01;8.13;;;1.90;;
23288;SDS011;11813;50.834;4.280;2023-03-30T01:34:59;2.27;;;1.60;;
23288;SDS011;11813;50.834;4.280;2023-03-30T01:37:42;3.93;;;1.87;;
23288;SDS011;11813;50.834;4.280;2023-03-30T01:40:35;4.57;;;2.10;;
23288;SDS011;11813;50.834;4.280;2023-03-30T01:43:24;3.63;;;2.60;;
23288;SDS011;11813;50.834;4.280;2023-03-30T01:46:02;4.87;;;1.60;;
23288;SDS011;11813;50.834;4.280;2023-03-30T01:48:46;5.43;;;2.53;;
23288;SDS011;11813;50.834;4.280;2023-03-30T01:51:19;6.77;;;2.20;;
23288;SDS011;11813;50.834;4.280;2023-03-30T01:54:02;6.70;;;1.87;;
23288;SDS011;11813;50.834;4.280;2023-03-30T01:56:37;9.10;;;1.90;;
23288;SDS011;11813;50.834;4.280;2023-03-30T01:59:23;2.93;;;1.70;;
23288;SDS011;11813;50.834;4.280;2023-03-30T02:01:58;6.67;;;2.00;;
23288;SDS011;11813;50.834;4.280;2023-03-30T02:04:28;8.17;;;2.27;;
23288;SDS011;11813;50.834;4.280;2023-03-30T02:06:58;8.17;;;2.40;;
23288;SDS011;11813;50.834;4.280;2023-03-30T02:09:28;5.50;;;1.90;;
23288;SDS011;11813;50.834;4.280;2023-03-30T02:11:55;3.03;;;1.90;;
23288;SDS011;11813;50.834;4.280;2023-03-30T02:14:23;5.20;;;1.93;;
23288;SDS011;11813;50.834;4.280;2023-03-30T02:16:56;4.57;;;1.87;;
23288;SDS011;11813;50.834;4.280;2023-03-30T02:19:35;3.27;;;2.00;;
23288;SDS011;11813;50.834;4.280;2023-03-30T02:22:02;7.90;;;2.03;;
23288;SDS011;11813;50.834;4.280;2023-03-30T02:24:29;4.57;;;1.97;;
23288;SDS011;11813;50.834;4.280;2023-03-30T02:26:56;8.07;;;2.27;;
23288;SDS011;11813;50.834;4.280;2023-03-30T02:29:23;6.77;;;2.80;;
23288;SDS011;11813;50.834;4.280;2023-03-30T02:31:49;7.43;;;2.57;;
23288;SDS011;11813;50.834;4.280;2023-03-30T02:37:13;6.43;;;2.00;;
23288;SDS011;11813;50.834;4.280;2023-03-30T02:40:02;5.10;;;2.07;;
23288;SDS011;11813;50.834;4.280;2023-03-30T02:42:56;6.13;;;1.97;;
23288;SDS011;11813;50.834;4.280;2023-03-30T03:00:10;3.97;;;1.57;;
23288;SDS011;11813;50.834;4.280;2023-03-30T03:02:42;3.43;;;1.70;;
23288;SDS011;11813;50.834;4.280;2023-03-30T03:05:13;6.87;;;2.07;;
23288;SDS011;11813;50.834;4.280;2023-03-30T03:07:40;4.07;;;1.80;;
23288;SDS011;11813;50.834;4.280;2023-03-30T03:10:06;4.73;;;1.97;;
23288;SDS011;11813;50.834;4.280;2023-03-30T03:12:32;3.43;;;1.93;;
23288;SDS011;11813;50.834;4.280;2023-03-30T03:14:59;5.23;;;2.00;;
23288;SDS011;11813;50.834;4.280;2023-03-30T03:17:27;4.53;;;1.60;;
23288;SDS011;11813;50.834;4.280;2023-03-30T03:19:58;7.00;;;2.27;;
23288;SDS011;11813;50.834;4.280;2023-03-30T03:22:28;7.77;;;2.10;;
23288;SDS011;11813;50.834;4.280;2023-03-30T03:24:55;3.70;;;1.73;;
23288;SDS011;11813;50.834;4.280;2023-03-30T03:27:21;4.80;;;3.10;;
23288;SDS011;11813;50.834;4.280;2023-03-30T03:29:46;3.60;;;1.73;;
23288;SDS011;11813;50.834;4.280;2023-03-30T03:32:13;6.33;;;1.87;;
23288;SDS011;11813;50.834;4.280;2023-03-30T03:34:39;9.47;;;2.00;;
23288;SDS011;11813;50.834;4.280;2023-03-30T03:37:08;5.57;;;1.87;;
23288;SDS011;11813;50.834;4.280;2023-03-30T03:39:34;2.97;;;1.50;;
23288;SDS011;11813;50.834;4.280;2023-03-30T03:42:01;8.33;;;1.83;;
23288;SDS011;11813;50.834;4.280;2023-03-30T03:44:27;5.03;;;2.00;;
23288;SDS011;11813;50.834;4.280;2023-03-30T03:46:53;3.60;;;1.87;;
23288;SDS011;11813;50.834;4.280;2023-03-30T03:49:18;5.90;;;1.97;;
23288;SDS011;11813;50.834;4.280;2023-03-30T03:51:44;5.00;;;2.10;;
23288;SDS011;11813;50.834;4.280;2023-03-30T03:54:10;7.10;;;2.00;;
23288;SDS011;11813;50.834;4.280;2023-03-30T03:56:35;3.77;;;1.90;;
23288;SDS011;11813;50.834;4.280;2023-03-30T03:59:01;5.10;;;1.93;;
23288;SDS011;11813;50.834;4.280;2023-03-30T04:01:28;4.70;;;1.77;;
23288;SDS011;11813;50.834;4.280;2023-03-30T04:03:55;4.57;;;1.73;;
23288;SDS011;11813;50.834;4.280;2023-03-30T04:06:21;7.60;;;1.70;;
23288;SDS011;11813;50.834;4.280;2023-03-30T04:08:46;4.07;;;2.33;;
23288;SDS011;11813;50.834;4.280;2023-03-30T04:11:12;5.07;;;1.90;;
23288;SDS011;11813;50.834;4.280;2023-03-30T04:13:38;4.83;;;1.93;;
23288;SDS011;11813;50.834;4.280;2023-03-30T04:16:04;4.60;;;1.90;;
23288;SDS011;11813;50.834;4.280;2023-03-30T04:18:31;6.53;;;2.17;;
23288;SDS011;11813;50.834;4.280;2023-03-30T04:20:58;4.10;;;2.00;;
23288;SDS011;11813;50.834;4.280;2023-03-30T04:23:27;9.23;;;2.40;;
23288;SDS011;11813;50.834;4.280;2023-03-30T04:26:02;4.87;;;2.20;;
23288;SDS011;11813;50.834;4.280;2023-03-30T04:28:29;6.03;;;1.97;;
23288;SDS011;11813;50.834;4.280;2023-03-30T04:30:57;4.97;;;2.20;;
23288;SDS011;11813;50.834;4.280;2023-03-30T04:33:24;7.20;;;2.03;;
23288;SDS011;11813;50.834;4.280;2023-03-30T04:35:50;7.80;;;2.00;;
23288;SDS011;11813;50.834;4.280;2023-03-30T04:38:15;6.97;;;2.43;;
23288;SDS011;11813;50.834;4.280;2023-03-30T04:40:49;5.47;;;1.90;;
23288;SDS011;11813;50.834;4.280;2023-03-30T04:43:16;4.50;;;2.10;;
23288;SDS011;11813;50.834;4.280;2023-03-30T04:45:49;2.53;;;1.87;;
23288;SDS011;11813;50.834;4.280;2023-03-30T04:48:19;7.27;;;1.80;;
23288;SDS011;11813;50.834;4.280;2023-03-30T04:50:46;3.77;;;1.90;;
23288;SDS011;11813;50.834;4.280;2023-03-30T04:53:13;10.17;;;2.30;;
23288;SDS011;11813;50.834;4.280;2023-03-30T04:55:40;3.83;;;1.83;;
23288;SDS011;11813;50.834;4.280;2023-03-30T04:58:07;5.10;;;1.83;;
23288;SDS011;11813;50.834;4.280;2023-03-30T05:00:35;8.17;;;1.80;;
23288;SDS011;11813;50.834;4.280;2023-03-30T05:03:02;6.07;;;1.87;;
23288;SDS011;11813;50.834;4.280;2023-03-30T05:05:28;4.70;;;2.10;;
23288;SDS011;11813;50.834;4.280;2023-03-30T05:07:54;6.10;;;2.33;;
23288;SDS011;11813;50.834;4.280;2023-03-30T05:10:20;6.00;;;1.57;;
23288;SDS011;11813;50.834;4.280;2023-03-30T05:12:45;5.50;;;2.00;;
23288;SDS011;11813;50.834;4.280;2023-03-30T05:15:11;4.63;;;1.47;;
23288;SDS011;11813;50.834;4.280;2023-03-30T05:17:37;6.43;;;1.53;;
23288;SDS011;11813;50.834;4.280;2023-03-30T05:20:04;7.73;;;2.03;;
23288;SDS011;11813;50.834;4.280;2023-03-30T05:22:33;6.03;;;2.00;;
23288;SDS011;11813;50.834;4.280;2023-03-30T05:25:00;6.47;;;2.00;;
23288;SDS011;11813;50.834;4.280;2023-03-30T05:27:25;7.60;;;2.17;;
23288;SDS011;11813;50.834;4.280;2023-03-30T05:29:51;6.70;;;2.10;;
23288;SDS011;11813;50.834;4.280;2023-03-30T05:32:17;7.50;;;2.03;;
23288;SDS011;11813;50.834;4.280;2023-03-30T05:34:42;6.30;;;2.33;;
23288;SDS011;11813;50.834;4.280;2023-03-30T05:37:08;7.13;;;2.00;;
23288;SDS011;11813;50.834;4.280;2023-03-30T05:39:33;3.47;;;2.00;;
23288;SDS011;11813;50.834;4.280;2023-03-30T05:42:00;6.20;;;2.13;;
23288;SDS011;11813;50.834;4.280;2023-03-30T05:44:26;4.63;;;1.97;;
23288;SDS011;11813;50.834;4.280;2023-03-30T05:46:52;8.73;;;2.10;;
23288;SDS011;11813;50.834;4.280;2023-03-30T05:49:17;6.97;;;2.43;;
23288;SDS011;11813;50.834;4.280;2023-03-30T05:51:43;7.77;;;1.90;;
23288;SDS011;11813;50.834;4.280;2023-03-30T05:54:10;4.67;;;1.77;;
23288;SDS011;11813;50.834;4.280;2023-03-30T05:56:36;6.23;;;1.90;;
23288;SDS011;11813;50.834;4.280;2023-03-30T05:59:02;9.30;;;2.70;;
23288;SDS011;11813;50.834;4.280;2023-03-30T06:01:29;6.80;;;2.27;;
23288;SDS011;11813;50.834;4.280;2023-03-30T06:03:54;6.70;;;2.00;;
23288;SDS011;11813;50.834;4.280;2023-03-30T06:06:20;8.20;;;2.10;;
23288;SDS011;11813;50.834;4.280;2023-03-30T06:08:46;8.63;;;2.37;;
23288;SDS011;11813;50.834;4.280;2023-03-30T06:11:13;9.13;;;2.03;;
23288;SDS011;11813;50.834;4.280;2023-03-30T06:13:39;10.13;;;2.27;;
23288;SDS011;11813;50.834;4.280;2023-03-30T06:16:05;6.30;;;2.00;;
23288;SDS011;11813;50.834;4.280;2023-03-30T06:18:31;7.20;;;2.33;;
23288;SDS011;11813;50.834;4.280;2023-03-30T06:20:57;6.90;;;2.13;;
23288;SDS011;11813;50.834;4.280;2023-03-30T06:23:26;7.50;;;2.47;;
23288;SDS011;11813;50.834;4.280;2023-03-30T06:25:52;12.03;;;2.20;;
23288;SDS011;11813;50.834;4.280;2023-03-30T06:28:19;7.03;;;2.33;;
23288;SDS011;11813;50.834;4.280;2023-03-30T06:30:45;8.20;;;2.33;;
23288;SDS011;11813;50.834;4.280;2023-03-30T06:33:13;9.57;;;2.30;;
23288;SDS011;11813;50.834;4.280;2023-03-30T06:35:44;10.20;;;1.80;;
23288;SDS011;11813;50.834;4.280;2023-03-30T06:38:10;10.07;;;2.23;;
23288;SDS011;11813;50.834;4.280;2023-03-30T06:40:37;9.53;;;2.40;;
23288;SDS011;11813;50.834;4.280;2023-03-30T06:43:02;13.87;;;2.77;;
23288;SDS011;11813;50.834;4.280;2023-03-30T06:45:28;6.77;;;2.00;;
23288;SDS011;11813;50.834;4.280;2023-03-30T06:47:54;6.27;;;2.10;;
23288;SDS011;11813;50.834;4.280;2023-03-30T06:50:20;7.17;;;2.50;;
23288;SDS011;11813;50.834;4.280;2023-03-30T06:52:45;9.37;;;2.47;;
23288;SDS011;11813;50.834;4.280;2023-03-30T06:55:11;11.90;;;2.93;;
23288;SDS011;11813;50.834;4.280;2023-03-30T06:57:36;12.33;;;3.13;;
23288;SDS011;11813;50.834;4.280;2023-03-30T07:00:02;12.43;;;2.80;;
23288;SDS011;11813;50.834;4.280;2023-03-30T07:02:39;9.40;;;2.87;;
23288;SDS011;11813;50.834;4.280;2023-03-30T07:05:06;16.27;;;3.47;;
23288;SDS011;11813;50.834;4.280;2023-03-30T07:07:32;10.97;;;2.50;;
23288;SDS011;11813;50.834;4.280;2023-03-30T07:09:58;11.60;;;2.90;;
23288;SDS011;11813;50.834;4.280;2023-03-30T07:12:23;11.93;;;2.30;;
23288;SDS011;11813;50.834;4.280;2023-03-30T07:14:49;14.53;;;2.40;;
23288;SDS011;11813;50.834;4.280;2023-03-30T07:17:15;8.33;;;2.60;;
23288;SDS011;11813;50.834;4.280;2023-03-30T07:19:40;11.23;;;2.60;;
23288;SDS011;11813;50.834;4.280;2023-03-30T07:22:06;11.33;;;3.00;;
23288;SDS011;11813;50.834;4.280;2023-03-30T07:24:32;11.23;;;2.60;;
23288;SDS011;11813;50.834;4.280;2023-03-30T07:26:58;11.93;;;2.60;;
23288;SDS011;11813;50.834;4.280;2023-03-30T07:29:24;7.77;;;2.30;;
23288;SDS011;11813;50.834;4.280;2023-03-30T07:31:51;20.10;;;3.43;;
23288;SDS011;11813;50.834;4.280;2023-03-30T07:34:16;14.70;;;3.03;;
23288;SDS011;11813;50.834;4.280;2023-03-30T07:36:42;8.93;;;2.37;;
23288;SDS011;11813;50.834;4.280;2023-03-30T07:39:08;14.47;;;2.60;;
23288;SDS011;11813;50.834;4.280;2023-03-30T07:41:35;12.93;;;2.97;;
23288;SDS011;11813;50.834;4.280;2023-03-30T07:44:00;13.60;;;3.00;;
23288;SDS011;11813;50.834;4.280;2023-03-30T07:46:26;11.13;;;2.73;;
23288;SDS011;11813;50.834;4.280;2023-03-30T07:48:51;12.13;;;2.70;;
23288;SDS011;11813;50.834;4.280;2023-03-30T07:51:17;11.00;;;2.47;;
23288;SDS011;11813;50.834;4.280;2023-03-30T07:53:45;12.20;;;3.27;;
23288;SDS011;11813;50.834;4.280;2023-03-30T07:56:12;15.20;;;2.90;;
23288;SDS011;11813;50.834;4.280;2023-03-30T07:58:37;12.83;;;2.97;;
23288;SDS011;11813;50.834;4.280;2023-03-30T08:01:04;13.20;;;2.83;;
23288;SDS011;11813;50.834;4.280;2023-03-30T08:03:29;15.57;;;3.53;;
23288;SDS011;11813;50.834;4.280;2023-03-30T08:05:59;8.70;;;3.50;;
23288;SDS011;11813;50.834;4.280;2023-03-30T08:08:28;13.40;;;3.90;;
23288;SDS011;11813;50.834;4.280;2023-03-30T08:10:55;10.57;;;2.83;;
23288;SDS011;11813;50.834;4.280;2023-03-30T08:13:21;11.73;;;2.43;;
23288;SDS011;11813;50.834;4.280;2023-03-30T08:15:46;10.70;;;2.63;;
23288;SDS011;11813;50.834;4.280;2023-03-30T08:18:12;10.80;;;1.83;;
23288;SDS011;11813;50.834;4.280;2023-03-30T08:20:39;6.47;;;1.57;;
23288;SDS011;11813;50.834;4.280;2023-03-30T08:23:06;10.50;;;2.40;;
23288;SDS011;11813;50.834;4.280;2023-03-30T08:25:36;7.80;;;1.80;;
23288;SDS011;11813;50.834;4.280;2023-03-30T08:28:02;4.23;;;1.67;;
23288;SDS011;11813;50.834;4.280;2023-03-30T08:30:29;8.77;;;1.73;;
23288;SDS011;11813;50.834;4.280;2023-03-30T08:32:55;5.17;;;1.50;;
23288;SDS011;11813;50.834;4.280;2023-03-30T08:35:21;6.17;;;2.00;;
23288;SDS011;11813;50.834;4.280;2023-03-30T08:37:47;8.23;;;1.40;;
23288;SDS011;11813;50.834;4.280;2023-03-30T08:40:13;9.67;;;2.53;;
23288;SDS011;11813;50.834;4.280;2023-03-30T08:45:13;14.80;;;3.00;;
23288;SDS011;11813;50.834;4.280;2023-03-30T08:47:40;10.23;;;2.67;;
23288;SDS011;11813;50.834;4.280;2023-03-30T08:50:23;14.07;;;2.67;;
23288;SDS011;11813;50.834;4.280;2023-03-30T08:52:56;13.10;;;2.40;;
23288;SDS011;11813;50.834;4.280;2023-03-30T08:55:23;11.20;;;2.77;;
23288;SDS011;11813;50.834;4.280;2023-03-30T09:00:32;12.63;;;3.00;;
23288;SDS011;11813;50.834;4.280;2023-03-30T09:03:13;10.23;;;3.10;;
23288;SDS011;11813;50.834;4.280;2023-03-30T09:05:48;12.57;;;3.17;;
23288;SDS011;11813;50.834;4.280;2023-03-30T09:08:22;13.63;;;3.40;;
23288;SDS011;11813;50.834;4.280;2023-03-30T09:11:03;14.70;;;3.63;;
23288;SDS011;11813;50.834;4.280;2023-03-30T09:13:35;13.27;;;3.00;;
23288;SDS011;11813;50.834;4.280;2023-03-30T09:19:03;14.57;;;2.80;;
23288;SDS011;11813;50.834;4.280;2023-03-30T09:21:33;13.07;;;3.33;;
23288;SDS011;11813;50.834;4.280;2023-03-30T09:23:59;15.90;;;3.50;;
23288;SDS011;11813;50.834;4.280;2023-03-30T09:29:18;8.07;;;3.13;;
23288;SDS011;11813;50.834;4.280;2023-03-30T09:37:16;13.83;;;3.50;;
23288;SDS011;11813;50.834;4.280;2023-03-30T09:39:46;8.77;;;2.83;;
23288;SDS011;11813;50.834;4.280;2023-03-30T09:45:18;9.50;;;3.17;;
23288;SDS011;11813;50.834;4.280;2023-03-30T09:47:46;18.30;;;3.73;;
23288;SDS011;11813;50.834;4.280;2023-03-30T09:50:45;15.77;;;4.10;;
23288;SDS011;11813;50.834;4.280;2023-03-30T09:53:25;10.17;;;3.60;;
23288;SDS011;11813;50.834;4.280;2023-03-30T09:55:57;7.97;;;3.00;;
23288;SDS011;11813;50.834;4.280;2023-03-30T09:58:32;16.10;;;3.50;;
23288;SDS011;11813;50.834;4.280;2023-03-30T10:01:08;13.33;;;3.07;;
23288;SDS011;11813;50.834;4.280;2023-03-30T10:03:36;8.57;;;2.87;;
23288;SDS011;11813;50.834;4.280;2023-03-30T10:08:52;9.70;;;2.47;;
23288;SDS011;11813;50.834;4.280;2023-03-30T10:11:20;10.20;;;3.47;;
23288;SDS011;11813;50.834;4.280;2023-03-30T10:13:57;10.27;;;2.70;;
23288;SDS011;11813;50.834;4.280;2023-03-30T10:18:53;11.47;;;2.80;;
23288;SDS011;11813;50.834;4.280;2023-03-30T10:21:28;7.00;;;2.40;;
23288;SDS011;11813;50.834;4.280;2023-03-30T10:24:17;4.37;;;2.27;;
23288;SDS011;11813;50.834;4.280;2023-03-30T10:26:47;9.47;;;2.33;;
23288;SDS011;11813;50.834;4.280;2023-03-30T10:29:21;11.00;;;2.87;;
23288;SDS011;11813;50.834;4.280;2023-03-30T10:31:51;12.73;;;3.37;;
23288;SDS011;11813;50.834;4.280;2023-03-30T10:34:43;9.13;;;3.07;;
23288;SDS011;11813;50.834;4.280;2023-03-30T10:40:00;11.53;;;3.20;;
23288;SDS011;11813;50.834;4.280;2023-03-30T10:42:33;10.30;;;3.20;;
23288;SDS011;11813;50.834;4.280;2023-03-30T10:45:00;16.33;;;3.13;;
23288;SDS011;11813;50.834;4.280;2023-03-30T11:01:51;14.63;;;3.03;;
23288;SDS011;11813;50.834;4.280;2023-03-30T11:06:48;15.37;;;2.70;;
23288;SDS011;11813;50.834;4.280;2023-03-30T11:09:17;14.50;;;2.73;;
23288;SDS011;11813;50.834;4.280;2023-03-30T11:11:48;17.17;;;3.90;;
23288;SDS011;11813;50.834;4.280;2023-03-30T11:17:25;13.70;;;2.87;;
23288;SDS011;11813;50.834;4.280;2023-03-30T11:19:55;23.97;;;3.20;;
23288;SDS011;11813;50.834;4.280;2023-03-30T11:22:32;17.60;;;3.20;;
23288;SDS011;11813;50.834;4.280;2023-03-30T11:25:08;14.10;;;3.67;;
23288;SDS011;11813;50.834;4.280;2023-03-30T11:30:46;15.93;;;3.10;;
23288;SDS011;11813;50.834;4.280;2023-03-30T11:33:19;13.00;;;2.97;;
23288;SDS011;11813;50.834;4.280;2023-03-30T11:35:59;13.23;;;3.00;;
23288;SDS011;11813;50.834;4.280;2023-03-30T11:38:40;12.50;;;2.83;;
23288;SDS011;11813;50.834;4.280;2023-03-30T11:41:12;14.37;;;3.40;;
23288;SDS011;11813;50.834;4.280;2023-03-30T11:43:40;10.20;;;3.10;;
23288;SDS011;11813;50.834;4.280;2023-03-30T11:46:17;16.80;;;2.40;;
23288;SDS011;11813;50.834;4.280;2023-03-30T12:10:54;16.70;;;3.17;;
23288;SDS011;11813;50.834;4.280;2023-03-30T12:13:27;19.87;;;2.90;;
23288;SDS011;11813;50.834;4.280;2023-03-30T12:24:03;10.50;;;2.10;;
23288;SDS011;11813;50.834;4.280;2023-03-30T12:26:46;15.20;;;2.23;;
23288;SDS011;11813;50.834;4.280;2023-03-30T12:29:14;10.63;;;2.50;;
23288;SDS011;11813;50.834;4.280;2023-03-30T12:34:25;10.97;;;1.97;;
23288;SDS011;11813;50.834;4.280;2023-03-30T12:37:27;17.47;;;2.80;;
23288;SDS011;11813;50.834;4.280;2023-03-30T12:42:38;15.53;;;3.13;;
23288;SDS011;11813;50.834;4.280;2023-03-30T12:50:43;10.83;;;2.17;;
23288;SDS011;11813;50.834;4.280;2023-03-30T12:56:05;9.33;;;2.40;;
23288;SDS011;11813;50.834;4.280;2023-03-30T13:06:17;13.77;;;2.33;;
23288;SDS011;11813;50.834;4.280;2023-03-30T13:12:05;16.30;;;2.93;;
23288;SDS011;11813;50.834;4.280;2023-03-30T13:19:44;16.53;;;3.50;;
23288;SDS011;11813;50.834;4.280;2023-03-30T13:22:30;22.17;;;3.47;;
23288;SDS011;11813;50.834;4.280;2023-03-30T13:25:01;11.80;;;2.37;;
23288;SDS011;11813;50.834;4.280;2023-03-30T13:28:30;13.27;;;2.67;;
23288;SDS011;11813;50.834;4.280;2023-03-30T13:40:02;12.73;;;2.30;;
23288;SDS011;11813;50.834;4.280;2023-03-30T13:42:52;14.43;;;2.77;;
23288;SDS011;11813;50.834;4.280;2023-03-30T13:46:00;13.10;;;3.00;;
23288;SDS011;11813;50.834;4.280;2023-03-30T13:51:22;10.43;;;2.80;;
23288;SDS011;11813;50.834;4.280;2023-03-30T13:53:55;12.67;;;2.50;;
23288;SDS011;11813;50.834;4.280;2023-03-30T13:56:25;16.33;;;3.33;;
23288;SDS011;11813;50.834;4.280;2023-03-30T13:58:59;11.27;;;2.57;;
23288;SDS011;11813;50.834;4.280;2023-03-30T14:01:30;15.13;;;3.03;;
23288;SDS011;11813;50.834;4.280;2023-03-30T14:03:57;10.87;;;2.13;;
23288;SDS011;11813;50.834;4.280;2023-03-30T14:06:25;9.07;;;2.00;;
23288;SDS011;11813;50.834;4.280;2023-03-30T14:11:32;8.93;;;2.57;;
23288;SDS011;11813;50.834;4.280;2023-03-30T14:14:20;10.53;;;2.03;;
23288;SDS011;11813;50.834;4.280;2023-03-30T14:16:47;10.07;;;1.87;;
23288;SDS011;11813;50.834;4.280;2023-03-30T14:21:50;7.23;;;1.80;;
23288;SDS011;11813;50.834;4.280;2023-03-30T14:24:27;6.83;;;1.90;;
23288;SDS011;11813;50.834;4.280;2023-03-30T14:27:05;10.20;;;1.80;;
23288;SDS011;11813;50.834;4.280;2023-03-30T14:29:46;7.53;;;1.50;;
23288;SDS011;11813;50.834;4.280;2023-03-30T14:32:15;9.57;;;1.43;;
23288;SDS011;11813;50.834;4.280;2023-03-30T14:34:47;9.40;;;2.10;;
23288;SDS011;11813;50.834;4.280;2023-03-30T14:37:14;5.30;;;1.57;;
23288;SDS011;11813;50.834;4.280;2023-03-30T14:39:44;5.20;;;1.53;;
23288;SDS011;11813;50.834;4.280;2023-03-30T14:42:17;7.63;;;1.60;;
23288;SDS011;11813;50.834;4.280;2023-03-30T14:44:45;9.37;;;1.63;;
23288;SDS011;11813;50.834;4.280;2023-03-30T14:47:13;8.00;;;1.83;;
23288;SDS011;11813;50.834;4.280;2023-03-30T14:49:41;4.77;;;1.50;;
23288;SDS011;11813;50.834;4.280;2023-03-30T14:52:12;9.17;;;2.00;;
23288;SDS011;11813;50.834;4.280;2023-03-30T14:54:39;8.97;;;1.97;;
23288;SDS011;11813;50.834;4.280;2023-03-30T14:57:05;5.80;;;1.80;;
23288;SDS011;11813;50.834;4.280;2023-03-30T14:59:32;5.70;;;1.77;;
23288;SDS011;11813;50.834;4.280;2023-03-30T15:02:02;5.23;;;1.67;;
23288;SDS011;11813;50.834;4.280;2023-03-30T15:04:30;6.93;;;2.13;;
23288;SDS011;11813;50.834;4.280;2023-03-30T15:06:59;13.27;;;2.13;;
23288;SDS011;11813;50.834;4.280;2023-03-30T15:09:25;8.13;;;2.33;;
23288;SDS011;11813;50.834;4.280;2023-03-30T15:14:21;7.47;;;1.90;;
23288;SDS011;11813;50.834;4.280;2023-03-30T15:16:48;6.23;;;2.10;;
23288;SDS011;11813;50.834;4.280;2023-03-30T15:21:57;6.53;;;1.80;;
23288;SDS011;11813;50.834;4.280;2023-03-30T15:24:27;5.47;;;1.33;;
23288;SDS011;11813;50.834;4.280;2023-03-30T15:26:57;4.80;;;1.20;;
23288;SDS011;11813;50.834;4.280;2023-03-30T15:29:24;6.03;;;1.77;;
23288;SDS011;11813;50.834;4.280;2023-03-30T15:37:34;6.50;;;1.60;;
23288;SDS011;11813;50.834;4.280;2023-03-30T15:40:00;4.70;;;1.60;;
23288;SDS011;11813;50.834;4.280;2023-03-30T15:42:30;9.33;;;2.27;;
23288;SDS011;11813;50.834;4.280;2023-03-30T15:45:08;5.83;;;1.83;;
23288;SDS011;11813;50.834;4.280;2023-03-30T15:47:36;4.80;;;1.93;;
23288;SDS011;11813;50.834;4.280;2023-03-30T15:50:02;4.90;;;1.53;;
23288;SDS011;11813;50.834;4.280;2023-03-30T15:52:34;7.50;;;2.13;;
23288;SDS011;11813;50.834;4.280;2023-03-30T15:55:27;12.40;;;2.63;;
23288;SDS011;11813;50.834;4.280;2023-03-30T15:57:55;6.97;;;1.77;;
23288;SDS011;11813;50.834;4.280;2023-03-30T16:00:22;9.33;;;1.73;;
23288;SDS011;11813;50.834;4.280;2023-03-30T16:02:53;7.70;;;1.60;;
23288;SDS011;11813;50.834;4.280;2023-03-30T16:05:24;8.23;;;1.93;;
23288;SDS011;11813;50.834;4.280;2023-03-30T16:07:51;6.67;;;1.40;;
23288;SDS011;11813;50.834;4.280;2023-03-30T16:10:18;2.83;;;1.13;;
23288;SDS011;11813;50.834;4.280;2023-03-30T16:12:50;4.63;;;1.50;;
23288;SDS011;11813;50.834;4.280;2023-03-30T16:15:18;3.33;;;1.17;;
23288;SDS011;11813;50.834;4.280;2023-03-30T16:17:48;5.10;;;1.20;;
23288;SDS011;11813;50.834;4.280;2023-03-30T16:20:19;5.00;;;1.23;;
23288;SDS011;11813;50.834;4.280;2023-03-30T16:22:49;6.83;;;1.40;;
23288;SDS011;11813;50.834;4.280;2023-03-30T16:25:16;7.73;;;1.47;;
23288;SDS011;11813;50.834;4.280;2023-03-30T16:27:44;7.87;;;1.77;;
23288;SDS011;11813;50.834;4.280;2023-03-30T16:30:15;4.23;;;1.20;;
23288;SDS011;11813;50.834;4.280;2023-03-30T16:32:50;4.07;;;1.53;;
23288;SDS011;11813;50.834;4.280;2023-03-30T16:35:16;4.27;;;1.40;;
23288;SDS011;11813;50.834;4.280;2023-03-30T16:37:41;5.20;;;1.50;;
23288;SDS011;11813;50.834;4.280;2023-03-30T16:42:59;4.80;;;1.23;;
23288;SDS011;11813;50.834;4.280;2023-03-30T16:45:24;3.92;;;1.23;;
23288;SDS011;11813;50.834;4.280;2023-03-30T16:47:51;6.18;;;1.90;;
23288;SDS011;11813;50.834;4.280;2023-03-30T16:50:18;6.18;;;1.92;;
23288;SDS011;11813;50.834;4.280;2023-03-30T16:52:46;5.20;;;1.75;;
23288;SDS011;11813;50.834;4.280;2023-03-30T16:55:13;5.70;;;1.67;;
23288;SDS011;11813;50.834;4.280;2023-03-30T16:57:39;5.87;;;1.87;;
23288;SDS011;11813;50.834;4.280;2023-03-30T17:00:24;7.57;;;2.20;;
23288;SDS011;11813;50.834;4.280;2023-03-30T17:02:53;10.03;;;2.30;;
23288;SDS011;11813;50.834;4.280;2023-03-30T17:05:19;8.57;;;1.70;;
23288;SDS011;11813;50.834;4.280;2023-03-30T17:07:45;9.70;;;2.13;;
23288;SDS011;11813;50.834;4.280;2023-03-30T17:10:15;7.10;;;2.10;;
23288;SDS011;11813;50.834;4.280;2023-03-30T17:12:45;3.67;;;1.50;;
23288;SDS011;11813;50.834;4.280;2023-03-30T17:15:10;5.83;;;1.70;;
23288;SDS011;11813;50.834;4.280;2023-03-30T17:17:36;8.97;;;2.37;;
23288;SDS011;11813;50.834;4.280;2023-03-30T17:22:49;6.57;;;1.93;;
23288;SDS011;11813;50.834;4.280;2023-03-30T17:25:15;5.87;;;1.70;;
23288;SDS011;11813;50.834;4.280;2023-03-30T17:27:45;11.77;;;2.10;;
23288;SDS011;11813;50.834;4.280;2023-03-30T17:30:16;5.60;;;1.67;;
23288;SDS011;11813;50.834;4.280;2023-03-30T17:32:45;5.47;;;1.73;;
23288;SDS011;11813;50.834;4.280;2023-03-30T17:35:11;7.50;;;2.20;;
23288;SDS011;11813;50.834;4.280;2023-03-30T17:37:37;10.87;;;2.23;;
23288;SDS011;11813;50.834;4.280;2023-03-30T17:42:40;9.73;;;2.27;;
23288;SDS011;11813;50.834;4.280;2023-03-30T17:45:06;10.70;;;2.10;;
23288;SDS011;11813;50.834;4.280;2023-03-30T17:47:32;6.87;;;1.87;;
23288;SDS011;11813;50.834;4.280;2023-03-30T17:49:57;10.67;;;1.93;;